Time;durP1;ratioP1;P1;durP2;ratioP2;P2;SDS_P1;SDS_P2;PMS_P1;PMS_P2;Temp;Humidity;BMP_temperature;BMP_pressure;BME280_temperature;BME280_humidity;BME280_pressure;Samples;Min_cycle;Max_cycle;Signal;HPM_P1;HPM_P2
2023/07/11 00:00:40;;;;;;;;;;;21.20;99.90;;;;;;5001313;28;19996;-79
2023/07/11 00:03:06;;;;;;;;;;;21.10;99.90;;;;;;5001034;28;19925;-79
2023/07/11 00:05:32;;;;;;;;;;;21.10;99.90;;;;;;5023639;28;19920;-79
2023/07/11 00:07:57;;;;;;;;;;;21.10;99.90;;;;;;5001480;28;19924;-79
2023/07/11 00:10:23;;;;;;;;;;;21.00;99.90;;;;;;5001167;28;19915;-79
2023/07/11 00:12:49;;;;;;;;;;;21.00;99.90;;;;;;4999488;28;19913;-79
2023/07/11 00:15:15;;;;;;;;;;;21.00;99.90;;;;;;5000204;28;19923;-79
2023/07/11 00:17:41;;;;;;;;;;;21.00;99.90;;;;;;5037747;28;19917;-80
2023/07/11 00:20:11;;;;;;;;;;;21.00;99.90;;;;;;5005004;28;20080;-79
2023/07/11 00:22:37;;;;;;;;;;;20.90;99.90;;;;;;5023533;28;19913;-79
2023/07/11 00:25:04;;;;;;;;;;;20.90;99.90;;;;;;5022346;28;19913;-79
2023/07/11 00:27:30;;;;;;;;;;;20.90;99.90;;;;;;5020916;28;19921;-79
2023/07/11 00:29:56;;;;;;;;;;;20.80;99.90;;;;;;5018131;28;19913;-79
2023/07/11 00:32:21;;;;;;;;;;;20.80;99.90;;;;;;5038191;28;20253;-79
2023/07/11 00:34:47;;;;;;;;;;;20.80;99.90;;;;;;4997439;28;20276;-79
2023/07/11 00:37:12;;;;;;;;;;;20.70;99.90;;;;;;5000216;28;19920;-79
2023/07/11 00:39:38;;;;;;;;;;;20.70;99.90;;;;;;4999011;28;20055;-79
2023/07/11 00:42:05;;;;;;;;;;;20.70;99.90;;;;;;5022190;28;19917;-79
2023/07/11 00:44:48;;;;;;;;;;;20.60;99.90;;;;;;5021713;28;21756;-78
2023/07/11 00:47:14;;;;;;;;;;;20.60;99.90;;;;;;5021200;28;19922;-79
2023/07/11 00:49:40;;;;;;;;;;;20.60;99.90;;;;;;5004687;28;20274;-78
2023/07/11 00:52:06;;;;;;;;;;;20.60;99.90;;;;;;5037119;28;19908;-79
2023/07/11 00:54:32;;;;;;;;;;;20.50;99.90;;;;;;5020161;28;19963;-79
2023/07/11 00:57:00;;;;;;;;;;;20.50;99.90;;;;;;4998264;28;20055;-77
2023/07/11 00:59:26;;;;;;;;;;;20.50;99.90;;;;;;4998487;28;19996;-79
2023/07/11 01:02:01;;;;;;;;;;;20.50;99.90;;;;;;5020100;28;20369;-79
2023/07/11 01:04:26;;;;;;;;;;;20.40;99.90;;;;;;5003714;28;20016;-78
2023/07/11 01:06:52;;;;;;;;;;;20.40;99.90;;;;;;5021485;28;19917;-79
2023/07/11 01:09:17;;;;;;;;;;;20.40;99.90;;;;;;5002956;28;20460;-79
2023/07/11 01:11:52;;;;;;;;;;;20.40;99.90;;;;;;5021873;28;20445;-79
2023/07/11 01:14:17;;;;;;;;;;;20.40;99.90;;;;;;5021060;28;19917;-79
2023/07/11 01:16:43;;;;;;;;;;;20.30;99.90;;;;;;5019680;28;19935;-79
2023/07/11 01:19:10;;;;;;;;;;;20.30;99.90;;;;;;5021724;28;20258;-79
2023/07/11 01:21:36;;;;;;;;;;;20.30;99.90;;;;;;4998320;28;19995;-79
2023/07/11 01:24:01;;;;;;;;;;;20.30;99.90;;;;;;5021468;28;20268;-79
2023/07/11 01:26:27;;;;;;;;;;;20.30;99.90;;;;;;5021402;28;19917;-80
2023/07/11 01:28:53;;;;;;;;;;;20.30;99.90;;;;;;5004244;28;19909;-79
2023/07/11 01:31:19;;;;;;;;;;;20.30;99.90;;;;;;5021557;28;19917;-79
2023/07/11 01:33:44;;;;;;;;;;;20.20;99.90;;;;;;4998065;28;20246;-79
2023/07/11 01:36:10;;;;;;;;;;;20.20;99.90;;;;;;4996184;28;19917;-80
2023/07/11 01:38:36;;;;;;;;;;;20.20;99.90;;;;;;5020963;28;20006;-78
2023/07/11 01:41:01;;;;;;;;;;;20.10;99.90;;;;;;5020558;28;19913;-78
2023/07/11 01:43:27;;;;;;;;;;;20.10;99.90;;;;;;5021688;28;19959;-78
2023/07/11 01:45:53;;;;;;;;;;;20.10;99.90;;;;;;5019747;28;19913;-78
2023/07/11 01:48:18;;;;;;;;;;;20.10;99.90;;;;;;5037264;28;19920;-78
2023/07/11 01:50:44;;;;;;;;;;;20.00;99.90;;;;;;5035488;28;20533;-78
2023/07/11 01:53:11;;;;;;;;;;;20.00;99.90;;;;;;5036112;28;20301;-78
2023/07/11 01:55:37;;;;;;;;;;;20.00;99.90;;;;;;5020412;28;19909;-78
2023/07/11 01:58:02;;;;;;;;;;;20.00;99.90;;;;;;5016823;28;20381;-79
2023/07/11 02:00:29;;;;;;;;;;;19.90;99.90;;;;;;5020945;28;19957;-78
2023/07/11 02:02:55;;;;;;;;;;;19.90;99.90;;;;;;4997208;28;19960;-78
2023/07/11 02:05:20;;;;;;;;;;;19.90;99.90;;;;;;4997884;28;20002;-79
2023/07/11 02:07:46;;;;;;;;;;;19.80;99.90;;;;;;5004021;28;20640;-78
2023/07/11 02:10:11;;;;;;;;;;;19.80;99.90;;;;;;4998220;28;20422;-79
2023/07/11 02:12:37;;;;;;;;;;;19.70;99.90;;;;;;5036059;28;19924;-79
2023/07/11 02:15:03;;;;;;;;;;;19.60;99.90;;;;;;5000332;28;19909;-78
2023/07/11 02:17:28;;;;;;;;;;;19.60;99.90;;;;;;4998385;28;19909;-78
2023/07/11 02:19:54;;;;;;;;;;;19.60;99.90;;;;;;4996289;28;19933;-79
2023/07/11 02:22:19;;;;;;;;;;;19.50;99.90;;;;;;5021209;28;19913;-79
2023/07/11 02:24:45;;;;;;;;;;;19.50;99.90;;;;;;5003625;28;19940;-78
2023/07/11 02:27:11;;;;;;;;;;;19.50;99.90;;;;;;5019804;28;19917;-79
2023/07/11 02:29:36;;;;;;;;;;;19.40;99.90;;;;;;5002689;28;19968;-79
2023/07/11 02:32:02;;;;;;;;;;;19.40;99.90;;;;;;5020289;28;19917;-79
2023/07/11 02:34:29;;;;;;;;;;;19.30;99.90;;;;;;5004168;28;19975;-79
2023/07/11 02:36:54;;;;;;;;;;;19.20;99.90;;;;;;5021368;28;19963;-78
2023/07/11 02:39:20;;;;;;;;;;;19.20;99.90;;;;;;4997153;28;19916;-78
2023/07/11 02:41:45;;;;;;;;;;;19.20;99.90;;;;;;5018880;28;19988;-79
2023/07/11 02:44:11;;;;;;;;;;;19.20;99.90;;;;;;5019562;28;19943;-78
2023/07/11 02:46:36;;;;;;;;;;;19.20;99.90;;;;;;5003070;28;20035;-78
2023/07/11 02:49:02;;;;;;;;;;;19.10;99.90;;;;;;5019295;28;19966;-78
2023/07/11 02:51:28;;;;;;;;;;;19.10;99.90;;;;;;5021173;28;19936;-78
2023/07/11 02:53:54;;;;;;;;;;;19.10;99.90;;;;;;5020519;28;19913;-78
2023/07/11 02:56:20;;;;;;;;;;;19.10;99.90;;;;;;5021491;28;19915;-77
2023/07/11 02:58:50;;;;;;;;;;;19.10;99.90;;;;;;5038729;28;19987;-78
2023/07/11 03:01:16;;;;;;;;;;;19.00;99.90;;;;;;5040272;28;19967;-79
2023/07/11 03:03:41;;;;;;;;;;;19.00;99.90;;;;;;5025430;28;19929;-79
2023/07/11 03:06:07;;;;;;;;;;;19.00;99.90;;;;;;5024303;28;19928;-79
2023/07/11 03:08:33;;;;;;;;;;;18.90;99.90;;;;;;5025825;28;19948;-78
2023/07/11 03:11:01;;;;;;;;;;;18.90;99.90;;;;;;5021121;28;19913;-79
2023/07/11 03:13:26;;;;;;;;;;;18.90;99.90;;;;;;5002530;28;19913;-79
2023/07/11 03:15:52;;;;;;;;;;;18.90;99.90;;;;;;5041033;28;19987;-78
2023/07/11 03:18:18;;;;;;;;;;;18.80;99.90;;;;;;5002832;28;20043;-78
2023/07/11 03:20:43;;;;;;;;;;;18.80;99.90;;;;;;5004766;28;20002;-78
2023/07/11 03:23:10;;;;;;;;;;;18.80;99.90;;;;;;5002004;28;19916;-78
2023/07/11 03:25:36;;;;;;;;;;;18.70;99.90;;;;;;5003657;28;20008;-77
2023/07/11 03:28:01;;;;;;;;;;;18.80;99.90;;;;;;5024327;28;20438;-78
2023/07/11 03:30:27;;;;;;;;;;;18.70;99.90;;;;;;5039588;28;19909;-78
2023/07/11 03:32:52;;;;;;;;;;;18.70;99.90;;;;;;5038834;28;20384;-79
2023/07/11 03:35:18;;;;;;;;;;;18.70;99.90;;;;;;5007296;28;20673;-80
2023/07/11 03:37:43;;;;;;;;;;;18.70;99.90;;;;;;5024110;28;19913;-79
2023/07/11 03:40:09;;;;;;;;;;;18.70;99.90;;;;;;5024402;28;20277;-78
2023/07/11 03:42:35;;;;;;;;;;;18.70;99.90;;;;;;5020923;28;19948;-77
2023/07/11 03:45:00;;;;;;;;;;;18.70;99.90;;;;;;5021460;28;19921;-79
2023/07/11 03:47:26;;;;;;;;;;;18.70;99.90;;;;;;5025424;28;20054;-79
2023/07/11 03:49:51;;;;;;;;;;;18.70;99.90;;;;;;5023025;28;20810;-78
2023/07/11 03:52:17;;;;;;;;;;;18.60;99.90;;;;;;5024407;28;19936;-78
2023/07/11 03:54:42;;;;;;;;;;;18.60;99.90;;;;;;5001674;28;19913;-78
2023/07/11 03:57:08;;;;;;;;;;;18.60;99.90;;;;;;4999081;28;19909;-77
2023/07/11 03:59:33;;;;;;;;;;;18.60;99.90;;;;;;5002239;28;20305;-79
2023/07/11 04:01:59;;;;;;;;;;;18.60;99.90;;;;;;5023817;28;20332;-79
2023/07/11 04:04:24;;;;;;;;;;;18.60;99.90;;;;;;5024541;28;19952;-78
2023/07/11 04:06:50;;;;;;;;;;;18.60;99.90;;;;;;5000328;28;19913;-78
2023/07/11 04:09:15;;;;;;;;;;;18.60;99.90;;;;;;5001032;28;19912;-78
2023/07/11 04:11:41;;;;;;;;;;;18.60;99.90;;;;;;5024130;28;20379;-78
2023/07/11 04:14:09;;;;;;;;;;;18.60;99.90;;;;;;5005282;28;19909;-78
2023/07/11 04:16:34;;;;;;;;;;;18.60;99.90;;;;;;5023916;28;19917;-78
2023/07/11 04:19:00;;;;;;;;;;;18.60;99.90;;;;;;5023453;28;22202;-79
2023/07/11 04:21:25;;;;;;;;;;;18.60;99.90;;;;;;5001449;28;19955;-78
2023/07/11 04:23:51;;;;;;;;;;;18.60;99.90;;;;;;5000726;28;20288;-79
2023/07/11 04:26:16;;;;;;;;;;;18.70;99.90;;;;;;4999063;28;20002;-79
2023/07/11 04:28:42;;;;;;;;;;;18.70;99.90;;;;;;5021807;28;19920;-79
2023/07/11 04:31:10;;;;;;;;;;;18.70;99.90;;;;;;4999466;28;19924;-79
2023/07/11 04:33:36;;;;;;;;;;;18.70;99.90;;;;;;5016912;28;19944;-79
2023/07/11 04:36:12;;;;;;;;;;;18.70;99.90;;;;;;4997310;28;20044;-79
2023/07/11 04:38:38;;;;;;;;;;;18.70;99.90;;;;;;4997915;28;19968;-79
2023/07/11 04:41:05;;;;;;;;;;;18.70;99.90;;;;;;5005327;28;20358;-79
2023/07/11 04:43:30;;;;;;;;;;;18.70;99.90;;;;;;5000989;28;20369;-79
2023/07/11 04:45:56;;;;;;;;;;;18.70;99.90;;;;;;5036734;28;19948;-79
2023/07/11 04:48:22;;;;;;;;;;;18.70;99.90;;;;;;5023301;28;19924;-79
2023/07/11 04:50:48;;;;;;;;;;;18.80;99.90;;;;;;5000687;28;19909;-79
2023/07/11 04:53:13;;;;;;;;;;;18.90;99.90;;;;;;4999427;28;19913;-79
2023/07/11 04:55:40;;;;;;;;;;;18.90;99.90;;;;;;5023415;28;19924;-79
2023/07/11 04:58:05;;;;;;;;;;;18.90;99.90;;;;;;5019566;28;19916;-79
2023/07/11 05:00:31;;;;;;;;;;;19.00;99.90;;;;;;5023289;28;19955;-79
2023/07/11 05:02:57;;;;;;;;;;;19.10;99.90;;;;;;4998679;28;19940;-79
2023/07/11 05:05:22;;;;;;;;;;;19.10;99.90;;;;;;5023091;28;19938;-79
2023/07/11 05:07:48;;;;;;;;;;;19.20;99.90;;;;;;5024348;28;20297;-79
2023/07/11 05:10:14;;;;;;;;;;;19.30;99.90;;;;;;5005946;28;20004;-79
2023/07/11 05:12:40;;;;;;;;;;;19.30;99.90;;;;;;5000516;28;19909;-79
2023/07/11 05:15:05;;;;;;;;;;;19.40;99.90;;;;;;5000484;28;20081;-79
2023/07/11 05:17:31;;;;;;;;;;;19.40;99.90;;;;;;5018416;28;20953;-79
2023/07/11 05:19:56;;;;;;;;;;;19.50;99.90;;;;;;5000432;28;20468;-79
2023/07/11 05:22:22;;;;;;;;;;;19.50;99.90;;;;;;5022700;28;19916;-79
2023/07/11 05:24:48;;;;;;;;;;;19.60;99.90;;;;;;5020439;28;20331;-78
2023/07/11 05:27:13;;;;;;;;;;;19.70;99.90;;;;;;5025202;28;19921;-78
2023/07/11 05:29:39;;;;;;;;;;;19.80;99.90;;;;;;5005282;28;19912;-78
2023/07/11 05:32:05;;;;;;;;;;;19.80;99.90;;;;;;5037166;28;20674;-79
2023/07/11 05:34:30;;;;;;;;;;;19.90;99.90;;;;;;5004448;28;20378;-79
2023/07/11 05:36:56;;;;;;;;;;;20.00;99.90;;;;;;5004090;28;19917;-79
2023/07/11 05:39:21;;;;;;;;;;;20.10;99.90;;;;;;5021308;28;20289;-79
2023/07/11 05:41:48;;;;;;;;;;;20.20;99.90;;;;;;4999950;28;19916;-78
2023/07/11 05:44:15;;;;;;;;;;;20.30;99.90;;;;;;4997573;28;20031;-79
2023/07/11 05:46:40;;;;;;;;;;;20.40;99.90;;;;;;5023063;28;20624;-78
2023/07/11 05:49:06;;;;;;;;;;;20.50;99.90;;;;;;5036654;28;20472;-79
2023/07/11 05:51:32;;;;;;;;;;;20.60;99.90;;;;;;5000310;28;20012;-79
2023/07/11 05:53:57;;;;;;;;;;;20.70;99.90;;;;;;4997933;28;19944;-78
2023/07/11 05:56:23;;;;;;;;;;;20.80;99.90;;;;;;4999722;28;20352;-78
2023/07/11 05:58:50;;;;;;;;;;;20.80;99.90;;;;;;4999747;28;20365;-79
2023/07/11 06:01:18;;;;;;;;;;;21.00;99.90;;;;;;4998425;28;19909;-80
2023/07/11 06:03:47;;;;;;;;;;;21.00;99.90;;;;;;4996573;28;19929;-79
2023/07/11 06:06:14;;;;;;;;;;;21.10;99.90;;;;;;5021036;28;19951;-79
2023/07/11 06:08:40;;;;;;;;;;;21.20;99.90;;;;;;5022200;28;20316;-78
2023/07/11 06:11:05;;;;;;;;;;;21.20;99.90;;;;;;5021053;28;19943;-79
2023/07/11 06:13:32;;;;;;;;;;;21.30;99.90;;;;;;5004410;28;19944;-79
2023/07/11 06:16:18;;;;;;;;;;;21.40;99.90;;;;;;4997497;28;19959;-78
2023/07/11 06:18:46;;;;;;;;;;;21.50;99.90;;;;;;5021981;28;19913;-79
2023/07/11 06:21:12;;;;;;;;;;;21.50;99.90;;;;;;4998536;28;19917;-79
2023/07/11 06:23:40;;;;;;;;;;;21.60;99.90;;;;;;5020975;28;19916;-79
2023/07/11 06:26:05;;;;;;;;;;;21.70;99.90;;;;;;4998234;28;19952;-79
2023/07/11 06:28:31;;;;;;;;;;;21.80;99.90;;;;;;5036857;28;20090;-79
2023/07/11 06:30:58;;;;;;;;;;;21.90;99.90;;;;;;4996902;28;19913;-79
2023/07/11 06:33:24;;;;;;;;;;;22.00;99.90;;;;;;5023621;28;20312;-79
2023/07/11 06:35:50;;;;;;;;;;;22.10;99.90;;;;;;5041084;28;19913;-80
2023/07/11 06:38:16;;;;;;;;;;;22.20;99.90;;;;;;5002912;28;19917;-79
2023/07/11 06:40:55;;;;;;;;;;;22.20;99.90;;;;;;5026456;28;20017;-79
2023/07/11 06:43:22;;;;;;;;;;;22.30;99.90;;;;;;5040885;28;20439;-79
2023/07/11 06:45:48;;;;;;;;;;;22.40;99.90;;;;;;5025380;28;19959;-79
2023/07/11 06:48:14;;;;;;;;;;;22.50;99.90;;;;;;5024905;28;19917;-80
2023/07/11 06:50:39;;;;;;;;;;;22.50;99.90;;;;;;5025980;28;20063;-79
2023/07/11 06:53:05;;;;;;;;;;;22.50;99.90;;;;;;5007047;28;19908;-79
2023/07/11 06:55:31;;;;;;;;;;;22.60;99.90;;;;;;5007963;28;19917;-80
2023/07/11 06:57:56;;;;;;;;;;;22.60;99.90;;;;;;5024035;28;19952;-79
2023/07/11 07:00:24;;;;;;;;;;;22.60;99.90;;;;;;5023619;28;19913;-79
2023/07/11 07:02:50;;;;;;;;;;;22.70;99.90;;;;;;5000843;28;20331;-80
2023/07/11 07:05:15;;;;;;;;;;;22.70;99.90;;;;;;5007957;28;19912;-81
2023/07/11 07:07:40;;;;;;;;;;;22.70;99.90;;;;;;5024824;28;19921;-80
2023/07/11 07:10:06;;;;;;;;;;;22.70;99.90;;;;;;5001812;28;20016;-80
2023/07/11 07:12:34;;;;;;;;;;;22.80;99.90;;;;;;5025171;28;19932;-79
2023/07/11 07:14:59;;;;;;;;;;;22.80;99.90;;;;;;5020533;28;19951;-81
2023/07/11 07:17:25;;;;;;;;;;;22.80;99.90;;;;;;5001390;28;20454;-79
2023/07/11 07:19:51;;;;;;;;;;;22.90;99.90;;;;;;5004009;28;19917;-79
2023/07/11 07:22:17;;;;;;;;;;;22.90;99.90;;;;;;5025394;28;20420;-80
2023/07/11 07:24:43;;;;;;;;;;;23.00;99.90;;;;;;5024483;28;20047;-80
2023/07/11 07:27:09;;;;;;;;;;;23.00;99.90;;;;;;5039083;28;21372;-80
2023/07/11 07:29:35;;;;;;;;;;;23.10;99.90;;;;;;5004408;28;19912;-80
2023/07/11 07:32:04;;;;;;;;;;;23.10;99.90;;;;;;5006963;28;20007;-79
2023/07/11 07:34:35;;;;;;;;;;;23.20;99.90;;;;;;5005150;28;19924;-80
2023/07/11 07:37:01;;;;;;;;;;;23.30;99.90;;;;;;5023532;28;20034;-80
2023/07/11 07:39:27;;;;;;;;;;;23.40;99.90;;;;;;5024034;28;19975;-79
2023/07/11 07:41:52;;;;;;;;;;;23.40;99.90;;;;;;5042090;28;19963;-80
2023/07/11 07:44:18;;;;;;;;;;;23.50;99.90;;;;;;5001746;28;20384;-80
2023/07/11 07:46:43;;;;;;;;;;;23.60;99.90;;;;;;5002865;28;19917;-79
2023/07/11 07:49:09;;;;;;;;;;;23.60;99.90;;;;;;5002430;28;19913;-80
2023/07/11 07:51:34;;;;;;;;;;;23.70;99.90;;;;;;5003182;28;20274;-80
2023/07/11 07:54:00;;;;;;;;;;;23.80;99.90;;;;;;5002778;28;19952;-80
2023/07/11 07:56:28;;;;;;;;;;;23.90;99.90;;;;;;5039011;28;20360;-80
2023/07/11 07:58:54;;;;;;;;;;;23.90;99.90;;;;;;5006622;28;19917;-80
2023/07/11 08:01:23;;;;;;;;;;;23.90;99.90;;;;;;5001089;28;20266;-79
2023/07/11 08:03:48;;;;;;;;;;;24.00;99.90;;;;;;5023484;28;19955;-79
2023/07/11 08:06:15;;;;;;;;;;;24.20;99.90;;;;;;5022643;28;19917;-79
2023/07/11 08:08:41;;;;;;;;;;;24.20;99.90;;;;;;5006182;28;20286;-79
2023/07/11 08:11:07;;;;;;;;;;;24.30;99.90;;;;;;5023530;28;19909;-79
2023/07/11 08:13:34;;;;;;;;;;;24.30;99.90;;;;;;5002972;28;19962;-80
2023/07/11 08:16:00;;;;;;;;;;;24.40;99.90;;;;;;5038465;28;20007;-79
2023/07/11 08:18:26;;;;;;;;;;;24.50;99.90;;;;;;5021572;28;19919;-79
2023/07/11 08:20:51;;;;;;;;;;;24.60;99.90;;;;;;4999855;28;20004;-79
2023/07/11 08:23:17;;;;;;;;;;;24.70;99.90;;;;;;5024677;28;19913;-79
2023/07/11 08:25:44;;;;;;;;;;;24.80;99.90;;;;;;5005348;28;20345;-79
2023/07/11 08:28:09;;;;;;;;;;;24.80;99.90;;;;;;5000816;28;20502;-79
2023/07/11 08:30:41;;;;;;;;;;;25.00;99.90;;;;;;5005566;28;19924;-79
2023/07/11 08:33:06;;;;;;;;;;;25.00;99.90;;;;;;5004444;28;19979;-79
2023/07/11 08:35:32;;;;;;;;;;;25.10;99.90;;;;;;5023628;28;19936;-78
2023/07/11 08:37:57;;;;;;;;;;;25.30;99.30;;;;;;5004739;28;19913;-80
2023/07/11 08:40:25;;;;;;;;;;;25.30;99.30;;;;;;5022619;28;19917;-78
2023/07/11 08:42:52;;;;;;;;;;;25.40;99.20;;;;;;5037650;28;20402;-79
2023/07/11 08:45:22;;;;;;;;;;;25.60;99.40;;;;;;5023702;28;19913;-79
2023/07/11 08:47:54;;;;;;;;;;;25.70;99.00;;;;;;5004430;28;19924;-78
2023/07/11 08:50:23;;;;;;;;;;;25.80;99.10;;;;;;5006390;28;20140;-79
2023/07/11 08:52:53;;;;;;;;;;;25.80;98.70;;;;;;5023488;28;19925;-80
2023/07/11 08:55:25;;;;;;;;;;;25.90;98.80;;;;;;5018991;28;19916;-78
2023/07/11 08:58:03;;;;;;;;;;;26.00;98.70;;;;;;5000352;28;20000;-78
2023/07/11 09:00:36;;;;;;;;;;;26.10;98.40;;;;;;5023454;28;19956;-79
2023/07/11 09:03:04;;;;;;;;;;;26.20;97.90;;;;;;5000670;28;19929;-79
2023/07/11 09:05:33;;;;;;;;;;;26.20;97.30;;;;;;5018233;28;19923;-79
2023/07/11 09:08:00;;;;;;;;;;;26.40;97.50;;;;;;4999608;28;19920;-79
2023/07/11 09:10:47;;;;;;;;;;;26.60;97.30;;;;;;5000000;28;19916;-79
2023/07/11 09:13:31;;;;;;;;;;;26.60;97.20;;;;;;5023907;28;19909;-79
2023/07/11 09:16:04;;;;;;;;;;;26.70;97.20;;;;;;5038389;28;20652;-79
2023/07/11 09:18:45;;;;;;;;;;;26.80;96.70;;;;;;5022732;28;20369;-79
2023/07/11 09:21:21;;;;;;;;;;;26.90;96.90;;;;;;5018662;28;19920;-80
2023/07/11 09:23:52;;;;;;;;;;;27.20;96.90;;;;;;5037864;28;19916;-78
2023/07/11 09:26:23;;;;;;;;;;;27.30;96.20;;;;;;5022056;28;20004;-79
2023/07/11 09:28:59;;;;;;;;;;;27.40;95.60;;;;;;5004776;28;19917;-79
2023/07/11 09:31:24;;;;;;;;;;;27.50;95.30;;;;;;5005810;28;19913;-79
2023/07/11 09:33:52;;;;;;;;;;;27.50;95.60;;;;;;5005684;28;19921;-79
2023/07/11 09:36:18;;;;;;;;;;;27.50;95.70;;;;;;5001954;28;19986;-79
2023/07/11 09:39:02;;;;;;;;;;;27.60;95.90;;;;;;5023326;28;19913;-80
2023/07/11 09:41:43;;;;;;;;;;;27.90;96.00;;;;;;5047267;28;19944;-80
2023/07/11 09:44:09;;;;;;;;;;;28.60;95.80;;;;;;5018355;28;19934;-80
2023/07/11 09:46:35;;;;;;;;;;;29.40;95.60;;;;;;5019942;28;20430;-80
2023/07/11 09:49:01;;;;;;;;;;;30.00;94.50;;;;;;5016287;28;19916;-79
2023/07/11 09:51:30;;;;;;;;;;;30.10;94.10;;;;;;5027556;28;19988;-80
2023/07/11 09:53:58;;;;;;;;;;;29.90;94.00;;;;;;5001353;28;19913;-80
2023/07/11 09:56:25;;;;;;;;;;;29.60;93.40;;;;;;5038895;28;19917;-81
2023/07/11 09:58:52;;;;;;;;;;;29.40;93.30;;;;;;5022937;28;19939;-80
2023/07/11 10:01:25;;;;;;;;;;;29.40;93.10;;;;;;5001411;28;19913;-80
2023/07/11 10:03:52;;;;;;;;;;;29.60;93.50;;;;;;5023535;28;19921;-80
2023/07/11 10:06:26;;;;;;;;;;;30.00;93.40;;;;;;5004805;28;19917;-80
2023/07/11 10:08:53;;;;;;;;;;;30.30;93.10;;;;;;5037965;28;20341;-80
2023/07/11 10:11:21;;;;;;;;;;;30.30;92.10;;;;;;5000414;28;19978;-81
2023/07/11 10:13:47;;;;;;;;;;;30.20;92.40;;;;;;5002195;28;19960;-79
2023/07/11 10:16:21;;;;;;;;;;;30.30;92.20;;;;;;5022820;28;19915;-80
2023/07/11 10:18:47;;;;;;;;;;;30.60;92.60;;;;;;5005955;28;19909;-80
2023/07/11 10:21:17;;;;;;;;;;;30.80;92.40;;;;;;5003106;28;19959;-81
2023/07/11 10:23:43;;;;;;;;;;;31.00;91.90;;;;;;5001684;28;20050;-81
2023/07/11 10:26:10;;;;;;;;;;;31.50;92.20;;;;;;5022087;28;20383;-81
2023/07/11 10:28:39;;;;;;;;;;;32.00;91.20;;;;;;5020143;28;19932;-81
2023/07/11 10:31:10;;;;;;;;;;;32.40;90.90;;;;;;5003790;28;19912;-80
2023/07/11 10:33:42;;;;;;;;;;;32.90;90.90;;;;;;5021714;28;19928;-81
2023/07/11 10:36:15;;;;;;;;;;;33.20;90.30;;;;;;5022081;28;20007;-81
2023/07/11 10:38:49;;;;;;;;;;;33.50;90.30;;;;;;5022473;28;19917;-80
2023/07/11 10:41:18;;;;;;;;;;;33.60;90.20;;;;;;5005051;28;20349;-81
2023/07/11 10:43:49;;;;;;;;;;;33.40;89.60;;;;;;5021854;28;19949;-80
2023/07/11 10:46:38;;;;;;;;;;;33.20;90.20;;;;;;5016610;28;19913;-81
2023/07/11 10:49:06;;;;;;;;;;;33.40;90.20;;;;;;5021731;28;19917;-80
2023/07/11 10:51:52;;;;;;;;;;;33.80;88.10;;;;;;5037227;28;19971;-80
2023/07/11 10:54:21;;;;;;;;;;;33.50;87.50;;;;;;5019140;28;19963;-80
2023/07/11 10:56:50;;;;;;;;;;;33.20;87.80;;;;;;5017012;28;19909;-79
2023/07/11 10:59:23;;;;;;;;;;;33.10;86.00;;;;;;5021549;28;19928;-80
2023/07/11 11:01:57;;;;;;;;;;;32.70;86.10;;;;;;5014897;28;19998;-80
2023/07/11 11:04:38;;;;;;;;;;;32.70;86.20;;;;;;4998058;28;19913;-80
2023/07/11 11:07:15;;;;;;;;;;;32.60;86.10;;;;;;4997463;28;20385;-80
2023/07/11 11:09:53;;;;;;;;;;;32.40;85.90;;;;;;5000556;28;19918;-80
2023/07/11 11:12:25;;;;;;;;;;;32.00;86.20;;;;;;5036625;28;19909;-80
2023/07/11 11:15:12;;;;;;;;;;;32.00;87.00;;;;;;5037172;28;20004;-80
2023/07/11 11:17:57;;;;;;;;;;;32.70;87.10;;;;;;5024231;28;20369;-80
2023/07/11 11:20:29;;;;;;;;;;;33.20;86.40;;;;;;5025735;28;19924;-81
2023/07/11 11:23:13;;;;;;;;;;;33.20;85.10;;;;;;5040642;28;19924;-81
2023/07/11 11:25:58;;;;;;;;;;;33.50;86.10;;;;;;5008677;28;19948;-80
2023/07/11 11:28:24;;;;;;;;;;;34.00;84.70;;;;;;5040825;28;20646;-81
2023/07/11 11:30:52;;;;;;;;;;;33.90;83.50;;;;;;5037726;28;19913;-81
2023/07/11 11:33:36;;;;;;;;;;;33.60;83.90;;;;;;5006816;28;19919;-80
2023/07/11 11:36:05;;;;;;;;;;;33.50;84.40;;;;;;5007797;28;21053;-80
2023/07/11 11:38:39;;;;;;;;;;;33.40;84.70;;;;;;5038780;28;19908;-81
2023/07/11 11:41:12;;;;;;;;;;;33.10;84.20;;;;;;5040326;28;19952;-81
2023/07/11 11:43:39;;;;;;;;;;;32.90;85.10;;;;;;5022986;28;19987;-80
2023/07/11 11:46:07;;;;;;;;;;;32.80;84.60;;;;;;5025509;28;19924;-81
2023/07/11 11:48:36;;;;;;;;;;;32.50;85.40;;;;;;5025227;28;19921;-81
2023/07/11 11:51:04;;;;;;;;;;;32.50;85.50;;;;;;5023983;28;19920;-81
2023/07/11 11:53:46;;;;;;;;;;;32.50;85.40;;;;;;5008260;28;19917;-81
2023/07/11 11:56:13;;;;;;;;;;;32.50;85.40;;;;;;5026026;28;19913;-81
2023/07/11 11:58:50;;;;;;;;;;;32.50;85.70;;;;;;5023351;28;19924;-81
2023/07/11 12:01:34;;;;;;;;;;;32.60;86.10;;;;;;5024344;28;20372;-81
2023/07/11 12:03:59;;;;;;;;;;;32.50;85.80;;;;;;5038938;28;19960;-81
2023/07/11 12:06:30;;;;;;;;;;;32.50;86.80;;;;;;5003149;28;20415;-80
2023/07/11 12:09:16;;;;;;;;;;;32.30;86.40;;;;;;5023605;28;19916;-80
2023/07/11 12:12:08;;;;;;;;;;;32.30;86.20;;;;;;5011843;28;20016;-81
2023/07/11 12:14:34;;;;;;;;;;;32.20;86.00;;;;;;5024961;28;19913;-80
2023/07/11 12:17:00;;;;;;;;;;;32.00;84.00;;;;;;5001326;28;19909;-79
2023/07/11 12:19:34;;;;;;;;;;;31.70;84.20;;;;;;5001493;28;19917;-80
2023/07/11 12:22:04;;;;;;;;;;;31.50;85.40;;;;;;5040575;28;19913;-80
2023/07/11 12:24:33;;;;;;;;;;;31.60;85.90;;;;;;5005788;28;19947;-80
2023/07/11 12:27:27;;;;;;;;;;;31.80;85.70;;;;;;5006904;28;19924;-79
2023/07/11 12:29:53;;;;;;;;;;;32.30;86.10;;;;;;5021509;28;19912;-80
2023/07/11 12:32:38;;;;;;;;;;;32.60;85.60;;;;;;5024332;28;19999;-79
2023/07/11 12:35:08;;;;;;;;;;;32.70;85.70;;;;;;5023223;28;20028;-81
2023/07/11 12:37:41;;;;;;;;;;;32.80;85.40;;;;;;5036462;28;19967;-80
2023/07/11 12:40:26;;;;;;;;;;;32.80;85.80;;;;;;5037611;28;19966;-80
2023/07/11 12:42:51;;;;;;;;;;;32.80;84.20;;;;;;5039187;28;20339;-80
2023/07/11 12:45:20;;;;;;;;;;;32.50;83.80;;;;;;5023617;28;19920;-79
2023/07/11 12:47:47;;;;;;;;;;;32.50;84.20;;;;;;5022339;28;19947;-78
2023/07/11 12:50:24;;;;;;;;;;;33.00;84.60;;;;;;5003453;28;19924;-80
2023/07/11 12:52:57;;;;;;;;;;;33.40;83.50;;;;;;5006101;28;19913;-80
2023/07/11 12:55:23;;;;;;;;;;;33.90;83.50;;;;;;5017715;28;19913;-79
2023/07/11 12:57:50;;;;;;;;;;;34.30;83.00;;;;;;5023196;28;19940;-80
2023/07/11 13:00:22;;;;;;;;;;;34.60;81.40;;;;;;5003507;28;19913;-80
2023/07/11 13:02:53;;;;;;;;;;;34.80;82.10;;;;;;4996121;28;19925;-80
2023/07/11 13:05:19;;;;;;;;;;;35.00;82.30;;;;;;5000724;28;19914;-80
2023/07/11 13:07:44;;;;;;;;;;;35.30;82.20;;;;;;5002456;28;20146;-80
2023/07/11 13:10:23;;;;;;;;;;;35.60;81.60;;;;;;4999028;28;20011;-80
2023/07/11 13:12:48;;;;;;;;;;;35.30;82.00;;;;;;4990192;28;19920;-80
2023/07/11 13:15:18;;;;;;;;;;;35.10;82.90;;;;;;4982129;28;20334;-79
2023/07/11 13:17:49;;;;;;;;;;;35.20;81.20;;;;;;4984206;28;19920;-79
2023/07/11 13:20:25;;;;;;;;;;;35.30;81.50;;;;;;4986960;28;20366;-80
2023/07/11 13:22:52;;;;;;;;;;;35.40;80.40;;;;;;5003132;28;20017;-80
2023/07/11 13:25:27;;;;;;;;;;;35.70;81.00;;;;;;4981892;28;20032;-80
2023/07/11 13:27:53;;;;;;;;;;;36.30;81.20;;;;;;5003514;28;19929;-80
2023/07/11 13:30:18;;;;;;;;;;;36.60;80.80;;;;;;5003292;28;19963;-80
2023/07/11 13:32:44;;;;;;;;;;;36.30;79.30;;;;;;5004668;28;20415;-80
2023/07/11 13:35:15;;;;;;;;;;;35.70;76.80;;;;;;4983309;28;19964;-79
2023/07/11 13:37:44;;;;;;;;;;;34.80;78.10;;;;;;5019607;28;19913;-80
2023/07/11 13:40:28;;;;;;;;;;;34.40;79.30;;;;;;4998939;28;19917;-79
2023/07/11 13:42:57;;;;;;;;;;;34.10;80.20;;;;;;5017403;28;19913;-79
2023/07/11 13:45:25;;;;;;;;;;;33.80;79.30;;;;;;5011631;28;19921;-79
2023/07/11 13:47:52;;;;;;;;;;;33.60;80.20;;;;;;4995250;28;19925;-80
2023/07/11 13:50:20;;;;;;;;;;;33.50;80.00;;;;;;5002325;28;19925;-80
2023/07/11 13:52:49;;;;;;;;;;;33.20;80.50;;;;;;5001236;28;19914;-79
2023/07/11 13:55:24;;;;;;;;;;;33.20;81.50;;;;;;5001673;28;19913;-80
2023/07/11 13:57:50;;;;;;;;;;;33.30;80.40;;;;;;5003545;28;19909;-79
2023/07/11 14:00:17;;;;;;;;;;;33.20;79.80;;;;;;5016732;28;19918;-79
2023/07/11 14:02:43;;;;;;;;;;;33.20;79.80;;;;;;4987848;28;20043;-79
2023/07/11 14:05:23;;;;;;;;;;;33.00;79.30;;;;;;5017736;28;20008;-80
2023/07/11 14:07:50;;;;;;;;;;;32.90;80.40;;;;;;5020414;28;19921;-81
2023/07/11 14:10:16;;;;;;;;;;;32.90;81.30;;;;;;5021205;28;20396;-80
2023/07/11 14:12:42;;;;;;;;;;;33.10;81.80;;;;;;5020992;28;20495;-80
2023/07/11 14:15:16;;;;;;;;;;;33.70;81.60;;;;;;4998691;28;19959;-80
2023/07/11 14:17:43;;;;;;;;;;;34.10;81.30;;;;;;5021083;28;19920;-80
2023/07/11 14:20:16;;;;;;;;;;;34.20;81.40;;;;;;5034999;28;19917;-79
2023/07/11 14:22:42;;;;;;;;;;;34.00;81.70;;;;;;4996724;28;19963;-80